Latest Weather Observations for Point Wilson

IDV60901

Issued at 5:45 pm EDT Saturday 1 November 2014 (issued every 10 minutes, with the page automatically refreshed every 10 minutes)

About weather observations | Map of Melbourne area stations | Latest observations for Melbourne area | Other Formats
Station Details ID: 087166 Name: POINT WILSON Lat: -38.10 Lon: 144.54 Height: 18.0 m
Data from the previous 72 hours. | See also: Recent months at Point Wilson
Date/Time
EDT
Tmp

°C
App
Tmp
°C
Dew
Point
°C
Rel
Hum
%
Delta-T

°C
Wind Press
QNH
hPa
Press
MSL
hPa
Rain
since
9 am
mm
Dir
 
Spd
km/h
Gust
km/h
Spd
kts
Gust
kts
01/05:42pm - - - - - W 50 70 27 38 - - -
01/05:30pm - - - - - WSW 50 63 27 34 - - -
01/05:00pm - - - - - WSW 54 65 29 35 - - -
01/04:30pm - - - - - WSW 48 59 26 32 - - -
01/04:04pm - - - - - WSW 37 56 20 30 - - -
01/04:00pm - - - - - WSW 39 46 21 25 - - -
01/03:38pm - - - - - WSW 46 65 25 35 - - -
01/03:30pm - - - - - WSW 46 59 25 32 - - -
01/03:00pm - - - - - WSW 39 56 21 30 - - -
01/02:55pm - - - - - SW 41 67 22 36 - - -
01/02:47pm - - - - - WSW 63 82 34 44 - - -
01/02:45pm - - - - - WSW 69 82 37 44 - - -
01/02:43pm - - - - - WSW 48 82 26 44 - - -
01/02:30pm - - - - - WSW 46 57 25 31 - - -
01/02:00pm - - - - - WSW 41 59 22 32 - - -
01/01:58pm - - - - - WSW 39 61 21 33 - - -
01/01:41pm - - - - - WSW 61 80 33 43 - - -
01/01:39pm - - - - - WSW 65 80 35 43 - - -
01/01:33pm - - - - - WSW 44 63 24 34 - - -
01/01:30pm - - - - - WSW 48 63 26 34 - - -
01/01:00pm - - - - - WSW 44 56 24 30 - - -
01/12:41pm - - - - - WSW 39 63 21 34 - - -
01/12:30pm - - - - - W 39 54 21 29 - - -
01/12:19pm - - - - - W 41 46 22 25 - - -
01/12:00pm - - - - - W 41 54 22 29 - - -
01/11:30am - - - - - W 37 61 20 33 - - -
01/11:29am - - - - - W 35 57 19 31 - - -
01/11:00am - - - - - WSW 37 44 20 24 - - -
01/10:40am - - - - - W 43 63 23 34 - - -
01/10:30am - - - - - W 37 46 20 25 - - -
01/10:00am - - - - - W 32 41 17 22 - - -
01/09:30am - - - - - WSW 33 39 18 21 - - -
01/09:00am - - - - - WSW 37 48 20 26 - - -
01/08:30am - - - - - WSW 39 54 21 29 - - -
01/08:00am - - - - - W 41 46 22 25 - - -
01/07:30am - - - - - W 33 44 18 24 - - -
01/07:00am - - - - - W 39 48 21 26 - - -
01/06:30am - - - - - W 33 43 18 23 - - -
01/06:00am - - - - - W 43 50 23 27 - - -
01/05:51am - - - - - W 32 50 17 27 - - -
01/05:30am - - - - - WNW 24 28 13 15 - - -
01/05:00am - - - - - W 28 37 15 20 - - -
01/04:30am - - - - - WSW 22 28 12 15 - - -
01/04:00am - - - - - NW 17 20 9 11 - - -
01/03:30am - - - - - WNW 20 28 11 15 - - -
01/03:00am - - - - - WSW 20 28 11 15 - - -
01/02:30am - - - - - WSW 22 30 12 16 - - -
01/02:00am - - - - - W 35 44 19 24 - - -
01/01:30am - - - - - WSW 28 41 15 22 - - -
01/01:00am - - - - - WSW 48 69 26 37 - - -
01/12:58am - - - - - W 50 69 27 37 - - -
01/12:30am - - - - - W 50 59 27 32 - - -
01/12:25am - - - - - W 56 59 30 32 - - -
01/12:17am - - - - - W 35 46 19 25 - - -
01/12:00am - - - - - WSW 19 24 10 13 - - -
 
Date/Time
EDT
Tmp

°C
App
Tmp
°C
Dew
Point
°C
Rel
Hum
%
Delta-T

°C
Wind Press
QNH
hPa
Press
MSL
hPa
Rain
since
9 am
mm
Dir
 
Spd
km/h
Gust
km/h
Spd
kts
Gust
kts
31/11:30pm - - - - - WSW 37 48 20 26 - - -
31/11:24pm - - - - - WSW 41 48 22 26 - - -
31/11:00pm - - - - - SSW 26 33 14 18 - - -
31/10:48pm - - - - - SSW 35 44 19 24 - - -
31/10:37pm - - - - - SW 50 69 27 37 - - -
31/10:30pm - - - - - WSW 52 69 28 37 - - -
31/10:28pm - - - - - WSW 57 69 31 37 - - -
31/10:24pm - - - - - WNW 44 59 24 32 - - -
31/10:00pm - - - - - N 24 30 13 16 - - -
31/09:30pm - - - - - N 24 30 13 16 - - -
31/09:00pm - - - - - N 20 22 11 12 - - -
31/08:30pm - - - - - N 22 24 12 13 - - -
31/08:00pm - - - - - N 22 24 12 13 - - -
31/07:30pm - - - - - N 24 26 13 14 - - -
31/07:00pm - - - - - N 28 32 15 17 - - -
31/06:30pm - - - - - NNW 26 32 14 17 - - -
31/06:00pm - - - - - NNW 41 52 22 28 - - -
31/05:30pm - - - - - NNW 37 52 20 28 - - -
31/05:00pm - - - - - NNW 37 48 20 26 - - -
31/04:30pm - - - - - NNW 37 50 20 27 - - -
31/04:00pm - - - - - NNW 39 52 21 28 - - -
31/03:30pm - - - - - NNW 43 59 23 32 - - -
31/03:02pm - - - - - NNW 32 57 17 31 - - -
31/03:00pm - - - - - NNW 30 44 16 24 - - -
31/02:30pm - - - - - N 30 50 16 27 - - -
31/02:29pm - - - - - N 28 50 15 27 - - -
31/02:00pm - - - - - N 30 33 16 18 - - -
31/01:30pm - - - - - N 33 41 18 22 - - -
31/01:00pm - - - - - N 32 37 17 20 - - -
31/12:30pm - - - - - NE 26 32 14 17 - - -
31/12:00pm - - - - - ENE 30 33 16 18 - - -
31/11:30am - - - - - ENE 28 32 15 17 - - -
31/11:00am - - - - - NE 24 26 13 14 - - -
31/10:30am - - - - - NE 19 20 10 11 - - -
31/10:00am - - - - - NE 24 26 13 14 - - -
31/09:30am - - - - - NE 28 30 15 16 - - -
31/09:00am - - - - - NNE 20 24 11 13 - - -
31/08:30am - - - - - NNE 22 24 12 13 - - -
31/08:00am - - - - - NNE 15 17 8 9 - - -
31/07:30am - - - - - N 15 17 8 9 - - -
31/07:00am - - - - - N 15 17 8 9 - - -
31/06:30am - - - - - N 17 19 9 10 - - -
31/06:00am - - - - - N 19 20 10 11 - - -
31/05:30am - - - - - N 19 22 10 12 - - -
31/05:00am - - - - - N 20 24 11 13 - - -
31/04:30am - - - - - N 19 20 10 11 - - -
31/04:00am - - - - - N 15 17 8 9 - - -
31/03:30am - - - - - N 15 17 8 9 - - -
31/03:00am - - - - - N 15 17 8 9 - - -
31/02:30am - - - - - NNW 11 13 6 7 - - -
31/02:00am - - - - - E 9 13 5 7 - - -
31/01:30am - - - - - E 4 9 2 5 - - -
31/01:00am - - - - - ENE 7 9 4 5 - - -
31/12:30am - - - - - ENE 7 9 4 5 - - -
31/12:00am - - - - - ESE 7 9 4 5 - - -
 
Date/Time
EDT
Tmp

°C
App
Tmp
°C
Dew
Point
°C
Rel
Hum
%
Delta-T

°C
Wind Press
QNH
hPa
Press
MSL
hPa
Rain
since
9 am
mm
Dir
 
Spd
km/h
Gust
km/h
Spd
kts
Gust
kts
30/11:30pm - - - - - SE 9 13 5 7 - - -
30/11:00pm - - - - - S 13 17 7 9 - - -
30/10:30pm - - - - - SSE 15 17 8 9 - - -
30/10:00pm - - - - - SSE 17 20 9 11 - - -
30/09:30pm - - - - - SE 13 17 7 9 - - -
30/09:00pm - - - - - SE 15 20 8 11 - - -
30/08:30pm - - - - - SSE 17 22 9 12 - - -
30/08:00pm - - - - - SSE 24 28 13 15 - - -
30/07:30pm - - - - - S 24 28 13 15 - - -
30/07:00pm - - - - - S 24 28 13 15 - - -
30/06:30pm - - - - - S 24 28 13 15 - - -
30/06:00pm - - - - - S 28 32 15 17 - - -
30/05:30pm - - - - - SSE 26 28 14 15 - - -
30/05:00pm - - - - - S 24 28 13 15 - - -
30/04:30pm - - - - - S 22 26 12 14 - - -
30/04:00pm - - - - - SW 20 30 11 16 - - -
30/03:30pm - - - - - SW 22 24 12 13 - - -
30/03:00pm - - - - - SW 19 24 10 13 - - -
30/02:30pm - - - - - SW 19 22 10 12 - - -
30/02:00pm - - - - - SW 20 22 11 12 - - -
30/01:30pm - - - - - SW 17 20 9 11 - - -
30/01:00pm - - - - - SW 19 24 10 13 - - -
30/12:30pm - - - - - SW 20 26 11 14 - - -
30/12:00pm - - - - - WSW 19 24 10 13 - - -
30/11:30am - - - - - WSW 22 26 12 14 - - -
30/11:00am - - - - - WSW 20 28 11 15 - - -
30/10:30am - - - - - W 17 22 9 12 - - -
30/10:00am - - - - - W 17 22 9 12 - - -
30/09:30am - - - - - W 19 20 10 11 - - -
30/09:00am - - - - - W 17 22 9 12 - - -
30/08:30am - - - - - W 20 24 11 13 - - -
30/08:00am - - - - - W 22 28 12 15 - - -
30/07:30am - - - - - WNW 20 26 11 14 - - -
30/07:00am - - - - - WNW 19 24 10 13 - - -
30/06:30am - - - - - W 24 28 13 15 - - -
30/06:00am - - - - - WNW 19 22 10 12 - - -
30/05:30am - - - - - NW 19 20 10 11 - - -
30/05:00am - - - - - WNW 17 20 9 11 - - -
30/04:30am - - - - - WNW 15 19 8 10 - - -
30/04:00am - - - - - NW 17 19 9 10 - - -
30/03:30am - - - - - NW 17 19 9 10 - - -
30/03:00am - - - - - NW 15 19 8 10 - - -
30/02:30am - - - - - WNW 17 20 9 11 - - -
30/02:00am - - - - - NW 17 19 9 10 - - -
30/01:30am - - - - - NW 17 20 9 11 - - -
30/01:00am - - - - - W 24 28 13 15 - - -
30/12:30am - - - - - WNW 19 22 10 12 - - -
30/12:00am - - - - - NW 17 20 9 11 - - -
 
Date/Time
EDT
Tmp

°C
App
Tmp
°C
Dew
Point
°C
Rel
Hum
%
Delta-T

°C
Wind Press
QNH
hPa
Press
MSL
hPa
Rain
since
9 am
mm
Dir
 
Spd
km/h
Gust
km/h
Spd
kts
Gust
kts
29/11:30pm - - - - - NW 15 19 8 10 - - -
29/11:00pm - - - - - NNW 11 15 6 8 - - -
29/10:30pm - - - - - SW 4 9 2 5 - - -
29/10:00pm - - - - - S 6 7 3 4 - - -
29/09:30pm - - - - - SE 9 13 5 7 - - -
29/09:00pm - - - - - SSE 15 19 8 10 - - -
29/08:30pm - - - - - SSE 19 22 10 12 - - -
29/08:00pm - - - - - S 22 28 12 15 - - -
29/07:30pm - - - - - S 26 30 14 16 - - -
29/07:00pm - - - - - SSE 28 33 15 18 - - -
29/06:30pm - - - - - SSE 28 33 15 18 - - -
29/06:00pm - - - - - S 30 33 16 18 - - -

Latest Capital City Observations: Canberra | Sydney | Melbourne | Brisbane | Adelaide | Perth | Hobart | Darwin

Other Formats:

Comma delimited format used in spreadsheet applications
http://www.bom.gov.au/fwo/IDV60901/IDV60901.94847.axf

JavaScript Object Notation format (JSON) in row-major order
http://www.bom.gov.au/fwo/IDV60901/IDV60901.94847.json